Time;durP1;ratioP1;P1;durP2;ratioP2;P2;SDS_P1;SDS_P2;PMS_P1;PMS_P2;Temp;Humidity;BMP_temperature;BMP_pressure;BME280_temperature;BME280_humidity;BME280_pressure;Samples;Min_cycle;Max_cycle;Signal;HPM_P1;HPM_P2
2022/06/21 00:01:48;;;;;;;2.30;1.20;;;;;;;15.51;61.03;99084.34;5140338;28;20156;-70
2022/06/21 00:04:40;;;;;;;2.88;1.30;;;;;;;15.29;61.68;99090.44;5140732;28;20077;-71
2022/06/21 00:07:30;;;;;;;1.83;1.40;;;;;;;15.17;61.80;99087.31;5139898;28;20051;-70
2022/06/21 00:10:20;;;;;;;1.60;1.30;;;;;;;15.33;60.97;99091.78;5140717;28;20502;-70
2022/06/21 00:13:17;;;;;;;2.58;1.80;;;;;;;15.31;61.28;99098.28;5139972;28;20047;-70
2022/06/21 00:16:11;;;;;;;2.08;1.20;;;;;;;15.26;61.50;99098.78;5140502;28;20074;-70
2022/06/21 00:19:02;;;;;;;;;;;;;;;15.23;61.41;99097.31;5140325;28;20141;-70
2022/06/21 00:21:52;;;;;;;2.90;1.27;;;;;;;15.22;61.70;99095.63;5140482;28;19929;-70
2022/06/21 00:24:44;;;;;;;2.33;1.10;;;;;;;15.25;60.85;99084.59;5140157;28;20521;-70
2022/06/21 00:27:34;;;;;;;2.90;1.20;;;;;;;15.31;60.22;99079.59;5130282;28;20097;-70
2022/06/21 00:30:25;;;;;;;1.55;1.05;;;;;;;15.05;61.65;99080.66;5140580;28;20057;-70
2022/06/21 00:33:18;;;;;;;2.03;1.20;;;;;;;15.10;61.29;99074.78;5131260;28;20051;-70
2022/06/21 00:36:17;;;;;;;4.25;1.35;;;;;;;14.89;61.98;99080.69;5144553;28;20535;-69
2022/06/21 00:39:07;;;;;;;1.75;1.40;;;;;;;15.09;62.22;99086.47;5144751;28;20536;-69
2022/06/21 00:42:12;;;;;;;1.90;1.50;;;;;;;14.96;61.76;99089.66;5144141;28;20077;-70
2022/06/21 00:45:15;;;;;;;2.55;1.30;;;;;;;14.88;61.95;99098.53;5142974;28;20109;-70
2022/06/21 00:48:19;;;;;;;2.47;1.60;;;;;;;14.91;61.50;99092.03;5143942;28;20441;-69
2022/06/21 00:51:18;;;;;;;1.98;1.45;;;;;;;14.64;62.67;99086.06;5144405;28;20054;-70
2022/06/21 00:54:23;;;;;;;5.18;1.40;;;;;;;14.62;62.44;99090.72;5130133;28;20047;-70
2022/06/21 00:57:17;;;;;;;3.33;1.25;;;;;;;14.57;62.14;99077.88;5144147;28;20050;-70
2022/06/21 01:00:34;;;;;;;3.78;1.63;;;;;;;14.58;62.41;99078.72;5144024;28;20425;-70
2022/06/21 01:03:34;;;;;;;2.60;1.80;;;;;;;14.42;62.27;99068.00;5139766;28;20133;-69
2022/06/21 01:06:36;;;;;;;1.42;1.33;;;;;;;14.36;62.48;99069.50;5129925;28;20058;-69
2022/06/21 01:09:34;;;;;;;3.30;1.60;;;;;;;14.27;63.36;99068.69;5144444;28;20490;-70
2022/06/21 01:12:30;;;;;;;3.55;1.60;;;;;;;14.24;62.99;99065.50;5142636;28;20609;-70
2022/06/21 01:15:25;;;;;;;2.45;1.92;;;;;;;14.13;62.87;99055.97;5143934;28;20050;-70
2022/06/21 01:18:17;;;;;;;3.78;1.58;;;;;;;13.99;62.96;99060.13;5143952;28;20609;-70
2022/06/21 01:21:09;;;;;;;3.30;1.75;;;;;;;14.01;63.06;99044.81;5143050;28;20140;-69
2022/06/21 01:24:05;;;;;;;2.05;1.50;;;;;;;14.15;63.71;99053.16;5143314;28;20063;-70
2022/06/21 01:27:01;;;;;;;2.50;1.80;;;;;;;14.14;62.58;99047.00;5143546;28;20110;-69
2022/06/21 01:29:52;;;;;;;2.28;1.80;;;;;;;14.20;62.53;99061.47;5142220;28;20081;-70
2022/06/21 01:32:43;;;;;;;1.80;1.70;;;;;;;14.20;61.85;99062.31;5143132;28;20197;-69
2022/06/21 01:35:44;;;;;;;1.88;1.77;;;;;;;13.86;62.82;99070.44;5143428;28;20059;-70
2022/06/21 01:38:43;;;;;;;4.40;1.80;;;;;;;14.22;62.04;99064.81;5141575;28;20062;-69
2022/06/21 01:41:42;;;;;;;8.32;1.60;;;;;;;13.99;62.27;99052.13;5141502;28;20059;-69
2022/06/21 01:44:44;;;;;;;2.92;1.98;;;;;;;13.85;61.67;99037.63;5127710;28;20057;-69
2022/06/21 01:47:55;;;;;;;4.28;2.15;;;;;;;14.21;60.66;99047.16;5143072;28;20178;-70
2022/06/21 01:50:47;;;;;;;5.57;2.08;;;;;;;13.99;61.89;99027.31;5142954;28;20069;-70
2022/06/21 01:53:39;;;;;;;3.03;2.08;;;;;;;13.98;62.42;99025.66;5143099;28;20586;-70
2022/06/21 01:56:33;;;;;;;2.15;1.52;;;;;;;13.90;62.59;99014.97;5138947;28;20544;-70
2022/06/21 01:59:30;;;;;;;3.50;1.80;;;;;;;13.94;61.64;99026.94;5130384;28;20422;-70
2022/06/21 02:02:25;;;;;;;3.50;1.80;;;;;;;13.83;62.43;99010.28;5141517;28;20430;-70
2022/06/21 02:05:21;;;;;;;3.45;1.70;;;;;;;13.62;62.98;99005.41;5142487;28;20109;-69
2022/06/21 02:08:15;;;;;;;10.27;2.22;;;;;;;13.61;63.08;98994.94;5142384;28;20209;-69
2022/06/21 02:11:10;;;;;;;4.38;2.15;;;;;;;13.71;63.59;98992.97;5142319;28;20062;-70
2022/06/21 02:17:19;;;;;;;2.03;1.80;;;;;;;13.69;63.10;99004.78;5127320;28;20429;-69
2022/06/21 02:20:22;;;;;;;4.85;1.67;;;;;;;13.54;63.28;99004.56;5142638;28;20061;-70
2022/06/21 02:23:14;;;;;;;4.90;2.40;;;;;;;13.71;63.39;99005.41;5129361;28;20054;-69
2022/06/21 02:26:05;;;;;;;1.83;1.73;;;;;;;13.51;63.84;99005.75;5142586;28;20521;-70
2022/06/21 02:28:55;;;;;;;4.95;2.10;;;;;;;13.66;64.02;99000.59;5142207;28;20133;-69
2022/06/21 02:31:46;;;;;;;3.80;1.80;;;;;;;13.92;63.68;99008.47;5140892;28;20122;-69
2022/06/21 02:34:40;;;;;;;2.30;1.70;;;;;;;13.90;63.43;99002.47;5141993;28;20050;-70
2022/06/21 02:37:32;;;;;;;4.35;2.15;;;;;;;14.03;63.11;99007.31;5138167;28;20065;-70
2022/06/21 02:40:28;;;;;;;3.83;1.98;;;;;;;13.58;64.24;99004.09;5141809;28;20058;-69
2022/06/21 02:43:27;;;;;;;2.95;1.98;;;;;;;13.60;64.03;99007.41;5142526;28;20054;-69
2022/06/21 02:46:22;;;;;;;2.67;2.10;;;;;;;13.44;64.12;99002.03;5141578;28;20065;-70
2022/06/21 02:49:19;;;;;;;3.22;2.35;;;;;;;13.35;64.65;99008.34;5141621;28;20165;-70
2022/06/21 02:52:14;;;;;;;2.53;1.77;;;;;;;13.20;64.70;98993.94;5132303;28;20050;-70
2022/06/21 02:55:41;;;;;;;5.20;2.40;;;;;;;13.67;63.09;98990.78;5141866;28;20118;-71
2022/06/21 02:58:45;;;;;;;3.63;2.10;;;;;;;13.58;62.86;98964.13;5129813;28;20061;-70
2022/06/21 03:01:44;;;;;;;4.68;2.03;;;;;;;13.49;64.34;98966.94;5141637;28;20189;-70
2022/06/21 03:04:42;;;;;;;2.20;1.88;;;;;;;13.81;64.77;98985.66;5141480;28;20053;-70
2022/06/21 03:07:38;;;;;;;4.93;1.92;;;;;;;13.73;62.45;98982.94;5140397;28;20054;-70
2022/06/21 03:10:35;;;;;;;2.30;1.73;;;;;;;13.56;63.63;98981.25;5141789;28;20807;-70
2022/06/21 03:13:29;;;;;;;5.63;2.90;;;;;;;13.56;63.55;98984.75;5141741;28;20422;-70
2022/06/21 03:16:21;;;;;;;4.88;2.40;;;;;;;13.46;64.06;98978.75;5126996;28;20043;-70
2022/06/21 03:19:23;;;;;;;5.68;2.47;;;;;;;13.37;64.78;98969.88;5140615;28;20816;-70
2022/06/21 03:22:21;;;;;;;6.18;2.58;;;;;;;13.44;64.57;98958.59;5139754;28;20078;-70
2022/06/21 03:25:26;;;;;;;3.40;2.22;;;;;;;13.50;64.22;98950.78;5141175;28;20177;-70
2022/06/21 03:28:25;;;;;;;5.28;2.38;;;;;;;13.39;64.67;98941.28;5141342;28;20703;-70
2022/06/21 03:31:34;;;;;;;3.63;2.22;;;;;;;13.45;64.22;98944.28;5141593;28;20121;-69
2022/06/21 03:34:26;;;;;;;5.72;2.15;;;;;;;13.34;65.41;98942.75;5140770;28;20141;-69
2022/06/21 03:37:18;;;;;;;3.10;2.38;;;;;;;13.48;64.60;98954.63;5139981;28;20177;-69
2022/06/21 03:43:25;;;;;;;2.20;2.00;;;;;;;13.32;64.48;98944.75;5141458;28;20150;-71
2022/06/21 03:46:23;;;;;;;4.47;2.55;;;;;;;13.27;65.26;98952.38;5141124;28;20054;-70
2022/06/21 03:49:36;;;;;;;6.30;2.40;;;;;;;13.44;64.17;98943.44;5141131;28;20161;-71
2022/06/21 03:52:49;;;;;;;4.28;2.33;;;;;;;13.54;63.53;98945.94;5141245;28;20050;-70
2022/06/21 03:55:57;;;;;;;6.35;3.38;;;;;;;13.61;63.51;98942.50;5130767;28;20201;-70
2022/06/21 03:59:18;;;;;;;2.85;2.20;;;;;;;13.67;64.13;98967.63;5141113;28;20131;-70
2022/06/21 04:02:32;;;;;;;6.35;2.67;;;;;;;13.71;64.14;98957.47;5152106;28;20062;-71
2022/06/21 04:05:38;;;;;;;9.63;2.38;;;;;;;13.90;63.29;98962.47;5128892;28;20443;-70
2022/06/21 04:08:46;;;;;;;7.78;2.80;;;;;;;14.04;63.21;98961.00;5144744;28;20433;-71
2022/06/21 04:12:10;;;;;;;3.40;2.25;;;;;;;14.18;62.75;98956.84;5144843;28;20541;-72
2022/06/21 04:15:13;;;;;;;4.50;2.35;;;;;;;14.34;61.06;98951.50;5144154;28;20113;-70
2022/06/21 04:18:11;;;;;;;4.57;2.50;;;;;;;14.48;60.84;98947.28;5143576;28;20392;-71
2022/06/21 04:21:21;;;;;;;9.18;2.53;;;;;;;14.75;59.73;98943.41;5144336;28;20200;-70
2022/06/21 04:24:26;;;;;;;5.10;2.60;;;;;;;14.85;58.94;98946.72;5144571;28;20066;-70
2022/06/21 04:27:23;;;;;;;4.30;3.22;;;;;;;15.11;58.95;98932.25;5143523;28;20724;-70
2022/06/21 04:30:28;;;;;;;7.40;3.10;;;;;;;15.17;60.10;98921.72;5144291;28;20129;-70
2022/06/21 04:33:26;;;;;;;3.20;2.67;;;;;;;15.13;60.37;98951.59;5144901;28;20074;-70
2022/06/21 04:36:24;;;;;;;11.35;3.17;;;;;;;15.22;60.52;98958.56;5131538;28;20050;-70
2022/06/21 04:39:24;;;;;;;6.45;2.80;;;;;;;15.53;59.28;98945.22;5144360;28;20047;-70
2022/06/21 04:42:20;;;;;;;7.50;3.22;;;;;;;15.50;58.49;98951.75;5130514;28;20057;-70
2022/06/21 04:45:37;;;;;;;6.70;2.92;;;;;;;15.63;57.71;98939.63;5137596;28;20069;-72
2022/06/21 04:48:42;;;;;;;5.13;3.10;;;;;;;15.84;57.96;98923.81;5132911;28;20062;-72
2022/06/21 04:51:37;;;;;;;5.85;2.38;;;;;;;16.04;58.19;98939.38;5143049;28;20066;-72
2022/06/21 04:54:32;;;;;;;4.65;2.50;;;;;;;16.17;56.67;98934.22;5142838;28;20067;-69
2022/06/21 04:57:27;;;;;;;5.68;2.50;;;;;;;16.38;56.36;98926.31;5143190;28;20125;-69
2022/06/21 05:00:19;;;;;;;6.55;2.47;;;;;;;16.33;57.20;98933.25;5135380;28;20058;-70
2022/06/21 05:03:31;;;;;;;3.97;2.53;;;;;;;16.49;55.85;98926.88;5144184;28;20061;-70
2022/06/21 05:06:21;;;;;;;5.85;2.75;;;;;;;16.38;56.33;98931.66;5130466;28;20189;-70
2022/06/21 05:09:19;;;;;;;5.70;2.50;;;;;;;16.38;57.05;98930.84;5144119;28;20106;-72
2022/06/21 05:12:33;;;;;;;4.40;2.90;;;;;;;16.54;57.13;98940.56;5143731;28;20221;-71
2022/06/21 05:15:27;;;;;;;5.13;2.75;;;;;;;16.43;56.72;98923.13;5143628;28;20490;-69
2022/06/21 05:18:29;;;;;;;9.10;3.38;;;;;;;16.63;56.31;98942.97;5147190;28;20112;-71
2022/06/21 05:21:35;;;;;;;6.93;2.53;;;;;;;16.72;56.40;98942.88;5143678;28;20050;-73
2022/06/21 05:24:25;;;;;;;8.85;2.75;;;;;;;16.85;55.66;98938.59;5143099;28;20082;-74
2022/06/21 05:27:22;;;;;;;7.68;2.60;;;;;;;16.83;55.20;98945.13;5129927;28;20496;-75
2022/06/21 05:30:20;;;;;;;6.13;2.15;;;;;;;16.77;55.29;98932.47;5143494;28;20273;-71
2022/06/21 05:33:17;;;;;;;4.93;2.70;;;;;;;17.04;55.05;98942.53;5148507;28;20176;-71
2022/06/21 05:36:13;;;;;;;3.47;2.30;;;;;;;17.02;53.86;98933.84;5149693;28;20046;-71
2022/06/21 05:39:22;;;;;;;3.70;2.38;;;;;;;17.15;53.99;98943.88;5148941;28;20082;-71
2022/06/21 05:42:16;;;;;;;7.55;2.42;;;;;;;17.26;54.32;98953.31;5143942;28;20065;-70
2022/06/21 05:45:13;;;;;;;7.85;2.60;;;;;;;17.50;54.64;98928.00;5151020;28;20050;-71
2022/06/21 05:48:13;;;;;;;9.27;2.60;;;;;;;17.70;53.37;98934.41;5149149;28;20501;-71
2022/06/21 05:51:06;;;;;;;3.65;2.25;;;;;;;17.62;53.41;98937.22;5145121;28;20077;-69
2022/06/21 05:54:18;;;;;;;8.60;2.87;;;;;;;17.94;52.60;98929.72;5146886;28;20176;-72
2022/06/21 05:57:13;;;;;;;5.55;2.40;;;;;;;18.20;51.34;98937.16;5139510;28;20109;-70
2022/06/21 06:00:05;;;;;;;12.30;2.50;;;;;;;18.43;51.38;98928.88;5144854;28;20055;-72
2022/06/21 06:03:05;;;;;;;3.55;2.17;;;;;;;18.61;48.94;98934.56;5145004;28;20042;-68
2022/06/21 06:05:56;;;;;;;6.80;2.60;;;;;;;19.04;49.40;98939.81;5153002;28;20398;-69
2022/06/21 06:08:51;;;;;;;6.80;2.10;;;;;;;19.29;48.32;98937.41;5140969;28;20066;-71
2022/06/21 06:11:59;;;;;;;6.30;2.22;;;;;;;19.42;49.51;98925.88;5143142;28;20434;-70
2022/06/21 06:15:12;;;;;;;2.75;2.00;;;;;;;19.80;47.58;98938.81;5141268;28;20545;-69
2022/06/21 06:18:26;;;;;;;3.78;1.83;;;;;;;19.71;45.59;98940.88;5138325;28;20043;-72
2022/06/21 06:21:26;;;;;;;4.57;1.98;;;;;;;19.80;44.96;98941.50;5142508;28;20057;-68
2022/06/21 06:24:32;;;;;;;5.85;2.13;;;;;;;20.14;45.41;98948.59;5136359;28;20054;-70
2022/06/21 06:27:35;;;;;;;5.80;2.20;;;;;;;20.01;45.54;98946.72;5137110;28;20185;-69
2022/06/21 06:30:36;;;;;;;2.95;1.63;;;;;;;20.13;45.06;98950.47;5141023;28;20105;-71
2022/06/21 06:33:37;;;;;;;3.97;1.50;;;;;;;20.30;43.91;98958.94;5140508;28;20074;-69
2022/06/21 06:36:40;;;;;;;6.15;1.90;;;;;;;19.86;45.09;98951.44;5139733;28;20051;-71
2022/06/21 06:39:33;;;;;;;7.90;2.17;;;;;;;20.36;45.63;98950.03;5140027;28;20437;-69
2022/06/21 06:42:26;;;;;;;7.30;2.22;;;;;;;20.49;42.16;98954.56;5139545;28;20205;-69
2022/06/21 06:45:24;;;;;;;4.07;1.63;;;;;;;20.63;43.75;98961.66;5139252;28;20490;-69
2022/06/21 06:48:25;;;;;;;4.57;1.98;;;;;;;20.77;43.42;98946.28;5140963;28;20126;-69
2022/06/21 06:51:15;;;;;;;6.85;1.90;;;;;;;21.18;42.37;98945.09;5135528;28;20074;-69
2022/06/21 06:54:15;;;;;;;7.38;2.47;;;;;;;21.49;41.54;98949.78;5141317;28;20564;-69
2022/06/21 06:57:20;;;;;;;4.32;1.92;;;;;;;22.21;40.71;98936.84;5140815;28;20058;-70
2022/06/21 07:00:21;;;;;;;6.03;2.00;;;;;;;22.66;38.49;98935.84;5135032;28;20224;-72
2022/06/21 07:03:17;;;;;;;7.78;2.15;;;;;;;23.15;37.97;98929.50;5138589;28;20047;-69
2022/06/21 07:06:47;;;;;;;7.97;1.77;;;;;;;23.83;37.20;98930.25;5140608;28;20074;-69
2022/06/21 07:09:44;;;;;;;4.28;1.83;;;;;;;24.48;35.82;98927.56;5125810;28;20055;-69
2022/06/21 07:12:34;;;;;;;6.60;2.00;;;;;;;25.47;34.61;98934.84;5140939;28;20069;-70
2022/06/21 07:15:36;;;;;;;6.35;1.50;;;;;;;24.94;33.93;98931.31;5140168;28;20133;-69
2022/06/21 07:18:30;;;;;;;3.63;1.60;;;;;;;25.45;36.30;98945.94;5141147;28;20050;-70
2022/06/21 07:21:27;;;;;;;5.57;1.55;;;;;;;25.60;33.42;98948.13;5139121;28;20084;-70
2022/06/21 07:24:19;;;;;;;3.80;1.30;;;;;;;26.20;33.08;98947.59;5139962;28;20059;-70
2022/06/21 07:27:15;;;;;;;4.78;1.90;;;;;;;26.50;33.73;98951.06;5140417;28;20809;-71
2022/06/21 07:30:10;;;;;;;3.47;1.70;;;;;;;26.84;32.16;98957.28;5140192;28;20098;-70
2022/06/21 07:33:08;;;;;;;4.07;1.77;;;;;;;26.15;31.80;98961.06;5140722;28;20054;-70
2022/06/21 07:36:08;;;;;;;4.82;1.85;;;;;;;25.99;32.80;98961.88;5136161;28;20144;-70
2022/06/21 07:39:05;;;;;;;6.00;2.10;;;;;;;25.72;32.40;98967.88;5140127;28;20057;-70
2022/06/21 07:42:15;;;;;;;5.65;2.20;;;;;;;25.32;34.42;98962.50;5136700;28;20218;-70
2022/06/21 07:45:11;;;;;;;3.22;1.85;;;;;;;24.45;35.42;98957.03;5140621;28;20062;-70
2022/06/21 07:48:15;;;;;;;8.88;1.80;;;;;;;24.59;35.83;98947.59;5138512;28;20062;-70
2022/06/21 07:51:11;;;;;;;6.85;1.70;;;;;;;24.15;37.47;98941.66;5140725;28;20158;-69
2022/06/21 07:54:14;;;;;;;4.50;1.70;;;;;;;23.86;35.71;98916.25;5137841;28;20479;-69
2022/06/21 07:57:10;;;;;;;1.95;1.30;;;;;;;24.31;35.65;98919.28;5140663;28;20509;-70
2022/06/21 08:00:13;;;;;;;6.50;1.80;;;;;;;23.88;37.27;98900.63;5139095;28;20415;-70
2022/06/21 08:09:42;;;;;;;5.28;1.67;;;;;;;25.35;35.78;98864.31;5140774;28;20062;-69
2022/06/21 08:12:32;;;;;;;7.93;1.75;;;;;;;25.78;35.69;98863.72;5139657;28;20197;-69
2022/06/21 08:15:30;;;;;;;4.97;1.52;;;;;;;26.47;34.40;98862.63;5139827;28;20587;-69
2022/06/21 08:18:31;;;;;;;5.70;2.42;;;;;;;25.93;34.28;98848.78;5136029;28;20106;-69
2022/06/21 08:21:31;;;;;;;4.60;1.67;;;;;;;24.94;35.75;98824.69;5132220;28;20489;-69
2022/06/21 08:24:28;;;;;;;6.28;1.67;;;;;;;26.17;34.85;98850.25;5138963;28;20099;-69
2022/06/21 08:27:34;;;;;;;5.45;1.90;;;;;;;26.45;33.21;98862.88;5140028;28;20425;-69
2022/06/21 08:30:30;;;;;;;2.58;1.38;;;;;;;27.06;32.04;98881.94;5124852;28;20516;-70
2022/06/21 08:33:34;;;;;;;2.58;1.38;;;;;;;27.06;32.52;98876.50;5138035;28;20066;-69
2022/06/21 08:36:34;;;;;;;4.18;1.65;;;;;;;26.84;32.46;98889.25;5134002;28;20517;-69
2022/06/21 08:39:44;;;;;;;5.38;2.15;;;;;;;27.09;32.42;98884.16;5139540;28;20128;-70
2022/06/21 08:43:11;;;;;;;8.18;2.03;;;;;;;26.59;34.09;98868.81;5140323;28;20051;-70
2022/06/21 08:46:49;;;;;;;9.57;3.08;;;;;;;25.71;35.75;98867.66;5140504;28;20154;-70
2022/06/21 08:50:17;;;;;;;7.25;1.60;;;;;;;27.30;33.17;98873.53;5139102;28;20469;-70
2022/06/21 08:53:38;;;;;;;6.13;1.85;;;;;;;27.82;33.57;98875.69;5135894;28;20065;-70
2022/06/21 08:56:55;;;;;;;6.00;1.75;;;;;;;26.94;33.60;98876.59;5134520;28;20058;-70
2022/06/21 09:00:21;;;;;;;5.57;2.08;;;;;;;27.01;33.94;98890.03;5139169;28;20421;-70
2022/06/21 09:03:30;;;;;;;5.53;2.03;;;;;;;26.73;34.19;98877.44;5143742;28;20109;-70
2022/06/21 09:06:52;;;;;;;4.28;1.83;;;;;;;26.59;34.42;98867.97;5143860;28;20066;-70
2022/06/21 09:09:52;;;;;;;5.03;2.28;;;;;;;25.59;37.21;98848.72;5143866;28;20129;-70
2022/06/21 09:13:20;;;;;;;5.45;1.63;;;;;;;26.42;36.31;98840.81;5143101;28;20078;-70
2022/06/21 09:16:29;;;;;;;6.38;2.60;;;;;;;26.78;34.78;98841.31;5144055;28;20051;-70
2022/06/21 09:19:41;;;;;;;2.35;1.63;;;;;;;27.34;35.81;98833.81;5143525;28;20085;-71
2022/06/21 09:23:19;;;;;;;5.22;1.95;;;;;;;27.02;35.22;98834.53;5143057;28;20101;-71
2022/06/21 09:26:32;;;;;;;3.08;1.73;;;;;;;26.55;35.63;98851.34;5142429;28;20204;-70
2022/06/21 09:29:29;;;;;;;4.43;2.10;;;;;;;26.83;35.69;98852.25;5143332;28;20085;-70
2022/06/21 09:32:39;;;;;;;5.95;1.80;;;;;;;27.24;34.89;98856.31;5142712;28;20502;-71
2022/06/21 09:35:42;;;;;;;4.43;1.75;;;;;;;27.10;34.73;98836.78;5143261;28;20062;-72
2022/06/21 09:38:53;;;;;;;4.25;2.20;;;;;;;27.90;32.69;98834.34;5137783;28;20050;-71
2022/06/21 09:41:54;;;;;;;5.35;1.70;;;;;;;26.91;34.91;98838.22;5142980;28;20058;-70
2022/06/21 09:45:02;;;;;;;5.35;1.90;;;;;;;26.68;34.74;98840.09;5128873;28;20419;-71
2022/06/21 09:48:24;;;;;;;7.30;2.28;;;;;;;26.71;34.67;98844.22;5139434;28;20077;-70
2022/06/21 09:51:32;;;;;;;6.18;1.77;;;;;;;27.63;33.84;98843.34;5134302;28;20585;-70
2022/06/21 09:54:39;;;;;;;6.78;1.80;;;;;;;28.69;33.48;98846.31;5143328;28;20117;-71
2022/06/21 09:57:37;;;;;;;6.05;1.52;;;;;;;27.84;33.60;98819.03;5142592;28;20636;-72
2022/06/21 10:01:06;;;;;;;4.47;2.30;;;;;;;28.02;34.13;98832.25;5142687;28;20126;-72
2022/06/21 10:04:07;;;;;;;6.53;2.33;;;;;;;28.85;33.86;98828.09;5120642;28;20673;-70
2022/06/21 10:07:34;;;;;;;6.30;2.20;;;;;;;28.49;31.78;98833.41;5119858;28;20058;-70
2022/06/21 10:10:33;;;;;;;6.60;2.13;;;;;;;28.97;33.06;98832.25;5130729;28;20109;-71
2022/06/21 10:13:42;;;;;;;4.00;2.05;;;;;;;28.61;33.55;98814.91;5142752;28;20513;-71
2022/06/21 10:16:47;;;;;;;5.15;2.90;;;;;;;28.69;32.85;98819.84;5142333;28;20062;-72
2022/06/21 10:20:20;;;;;;;4.97;2.00;;;;;;;28.46;32.72;98812.09;5126408;28;20070;-70
2022/06/21 10:23:18;;;;;;;3.25;1.90;;;;;;;28.49;32.93;98809.66;5140422;28;20102;-70
2022/06/21 10:26:47;;;;;;;5.97;2.00;;;;;;;28.84;33.98;98794.53;5141626;28;20062;-71
2022/06/21 10:30:16;;;;;;;6.13;2.60;;;;;;;27.90;33.28;98800.81;5142902;28;20528;-70
2022/06/21 10:33:28;;;;;;;7.28;2.88;;;;;;;28.43;32.34;98794.34;5140797;28;20524;-70
2022/06/21 10:36:43;;;;;;;7.95;4.07;;;;;;;29.11;33.31;98799.84;5138031;28;20069;-70
2022/06/21 10:39:55;;;;;;;2.28;1.65;;;;;;;29.12;32.00;98787.81;5141527;28;20070;-70
2022/06/21 10:43:15;;;;;;;7.93;2.10;;;;;;;28.72;33.54;98772.94;5140673;28;20058;-71
2022/06/21 10:46:21;;;;;;;5.53;2.17;;;;;;;29.50;31.48;98770.13;5136634;28;20490;-71
2022/06/21 10:49:47;;;;;;;4.28;1.98;;;;;;;28.84;31.80;98758.22;5140419;28;20058;-71
2022/06/21 10:53:00;;;;;;;3.58;2.55;;;;;;;29.41;33.89;98763.53;5151060;28;20042;-71
2022/06/21 10:57:09;;;;;;;7.70;2.85;;;;;;;29.42;31.19;98756.97;5140361;28;20415;-71
2022/06/21 10:59:22;;;;;;;13.40;5.28;;;;;;;27.77;34.36;98748.41;5139195;28;20053;-70
2022/06/21 11:02:28;;;;;;;6.40;2.63;;;;;;;28.46;32.88;98736.56;5139286;28;20636;-71
2022/06/21 11:05:28;;;;;;;4.05;2.38;;;;;;;28.73;33.57;98735.56;5138062;28;20050;-70
2022/06/21 11:08:37;;;;;;;5.25;2.10;;;;;;;28.22;34.98;98727.97;5139452;28;20053;-70
2022/06/21 11:11:45;;;;;;;4.15;2.47;;;;;;;28.97;34.65;98722.22;5140849;28;20062;-70
2022/06/21 11:14:53;;;;;;;7.25;1.80;;;;;;;29.13;33.16;98736.75;5137335;28;20058;-70
2022/06/21 11:18:08;;;;;;;4.13;2.38;;;;;;;29.58;34.53;98738.69;5138275;28;20046;-70
2022/06/21 11:21:29;;;;;;;5.53;2.05;;;;;;;29.14;32.22;98746.56;5138531;28;20437;-70
2022/06/21 11:24:46;;;;;;;8.80;2.10;;;;;;;28.85;35.76;98738.88;5138932;28;20059;-69
2022/06/21 11:27:49;;;;;;;7.20;3.72;;;;;;;28.51;35.58;98735.75;5135341;28;20098;-72
2022/06/21 11:30:45;;;;;;;5.13;2.45;;;;;;;29.28;33.80;98742.25;5140312;28;20077;-69
2022/06/21 11:34:09;;;;;;;8.73;2.80;;;;;;;29.35;35.33;98729.13;5138707;28;20050;-70
2022/06/21 11:37:05;;;;;;;8.32;3.08;;;;;;;29.15;34.53;98734.59;5139610;28;20104;-70
2022/06/21 11:40:25;;;;;;;6.15;2.53;;;;;;;29.43;33.49;98714.91;5140004;28;20057;-70
2022/06/21 11:43:35;;;;;;;4.22;2.13;;;;;;;29.49;33.86;98713.81;5138749;28;20046;-70
2022/06/21 11:46:40;;;;;;;4.72;2.45;;;;;;;28.80;35.36;98711.56;5139556;28;20405;-69
2022/06/21 11:49:37;;;;;;;5.82;2.60;;;;;;;28.22;36.19;98710.81;5140468;28;20047;-69
2022/06/21 11:52:48;;;;;;;6.20;2.10;;;;;;;28.30;36.52;98700.19;5138538;28;20066;-69
2022/06/21 11:55:56;;;;;;;7.82;2.17;;;;;;;28.68;35.37;98689.19;5141489;28;20086;-69
2022/06/21 11:59:15;;;;;;;5.40;2.05;;;;;;;28.72;35.91;98682.09;5139354;28;20050;-69
2022/06/21 12:02:19;;;;;;;3.92;2.30;;;;;;;28.42;36.13;98682.84;5133454;28;20511;-69
2022/06/21 12:05:22;;;;;;;6.75;2.40;;;;;;;29.00;36.06;98673.41;5142397;28;20070;-69
2022/06/21 12:08:27;;;;;;;3.90;2.42;;;;;;;29.09;34.75;98672.88;5140765;28;20401;-69
2022/06/21 12:11:54;;;;;;;6.40;2.45;;;;;;;28.80;35.22;98667.91;5140293;28;20505;-69
2022/06/21 12:15:18;;;;;;;7.93;2.70;;;;;;;29.20;36.29;98667.13;5140656;28;20058;-71
2022/06/21 12:18:20;;;;;;;7.57;2.90;;;;;;;29.09;35.83;98676.44;5139573;28;20054;-71
2022/06/21 12:21:15;;;;;;;5.05;2.55;;;;;;;29.21;35.45;98670.72;5130784;28;20081;-70
2022/06/21 12:24:12;;;;;;;4.97;2.20;;;;;;;29.07;36.61;98675.06;5140724;28;20398;-70
2022/06/21 12:27:03;;;;;;;6.32;2.53;;;;;;;28.72;37.07;98682.09;5126514;28;20500;-70
2022/06/21 12:30:06;;;;;;;5.60;2.55;;;;;;;28.63;36.90;98675.50;5144365;28;20059;-70
2022/06/21 12:33:01;;;;;;;10.02;3.35;;;;;;;28.76;37.13;98655.91;5143230;28;20417;-70
2022/06/21 12:35:54;;;;;;;4.70;2.58;;;;;;;28.98;36.23;98663.84;5144428;28;20444;-70
2022/06/21 12:38:53;;;;;;;5.28;2.55;;;;;;;29.51;36.22;98650.75;5144299;28;20481;-70
2022/06/21 12:41:50;;;;;;;7.57;3.22;;;;;;;29.72;35.79;98646.88;5129139;28;20066;-70
2022/06/21 12:45:07;;;;;;;6.95;2.65;;;;;;;29.27;36.43;98629.47;5143757;28;20094;-70
2022/06/21 12:48:09;;;;;;;4.90;2.55;;;;;;;29.30;36.62;98641.72;5143070;28;20221;-70
2022/06/21 12:51:18;;;;;;;4.85;2.65;;;;;;;29.06;36.22;98638.75;5143862;28;20054;-69
2022/06/21 12:54:24;;;;;;;5.22;2.67;;;;;;;28.60;36.89;98637.88;5143946;28;20146;-70
2022/06/21 12:57:39;;;;;;;4.22;2.90;;;;;;;28.42;36.90;98611.94;5144152;28;20050;-69
2022/06/21 13:00:29;;;;;;;5.25;3.00;;;;;;;28.30;38.18;98595.78;5143720;28;20054;-70
2022/06/21 13:03:50;;;;;;;5.88;2.80;;;;;;;28.09;37.87;98522.13;5144075;28;20446;-70
2022/06/21 13:06:58;;;;;;;5.88;2.40;;;;;;;28.60;38.34;98556.03;5142576;28;20065;-70
2022/06/21 13:10:00;;;;;;;4.95;2.70;;;;;;;28.54;39.18;98566.97;5143685;28;20133;-70
2022/06/21 13:13:15;;;;;;;6.35;3.30;;;;;;;28.46;37.53;98572.13;5143922;28;20054;-69
2022/06/21 13:16:38;;;;;;;7.07;2.95;;;;;;;28.60;38.05;98578.66;5142248;28;20425;-70
2022/06/21 13:20:06;;;;;;;5.95;2.80;;;;;;;28.73;37.98;98607.31;5142467;28;20057;-70
2022/06/21 13:23:01;;;;;;;4.88;2.80;;;;;;;28.83;37.88;98596.41;5142104;28;20524;-69
2022/06/21 13:25:57;;;;;;;8.35;3.10;;;;;;;28.56;38.16;98605.66;5142001;28;20090;-70
2022/06/21 13:28:51;;;;;;;4.47;2.70;;;;;;;28.54;38.49;98599.69;5142339;28;20173;-70
2022/06/21 13:31:49;;;;;;;7.28;3.03;;;;;;;28.87;39.15;98575.66;5140761;28;20304;-70
2022/06/21 13:34:48;;;;;;;5.78;2.80;;;;;;;28.52;38.48;98560.13;5136148;28;20073;-71
2022/06/21 13:38:01;;;;;;;6.35;3.15;;;;;;;28.05;39.13;98542.84;5137023;28;20223;-68
2022/06/21 13:41:02;;;;;;;7.68;2.90;;;;;;;28.65;38.78;98550.59;5132027;28;20062;-68
2022/06/21 13:43:54;;;;;;;5.50;3.22;;;;;;;28.85;38.77;98561.50;5141342;28;20525;-69
2022/06/21 13:46:49;;;;;;;7.70;3.28;;;;;;;29.05;37.33;98576.25;5137435;28;20212;-69
2022/06/21 13:49:45;;;;;;;5.10;2.92;;;;;;;28.89;37.69;98584.41;5141737;28;20124;-69
2022/06/21 13:52:51;;;;;;;5.80;3.22;;;;;;;29.05;37.76;98579.00;5141564;28;20113;-68
2022/06/21 13:55:56;;;;;;;13.60;3.53;;;;;;;29.03;38.74;98573.78;5141731;28;20105;-69
2022/06/21 13:58:54;;;;;;;5.45;2.95;;;;;;;29.11;39.58;98554.13;5141879;28;20421;-69
2022/06/21 14:02:06;;;;;;;6.40;3.20;;;;;;;29.60;37.23;98542.53;5140715;28;20064;-69
2022/06/21 14:05:26;;;;;;;5.95;3.28;;;;;;;29.53;38.00;98527.53;5140785;28;20047;-69
2022/06/21 14:08:30;;;;;;;7.97;3.50;;;;;;;29.56;37.06;98524.25;5129835;28;20280;-69
2022/06/21 14:11:47;;;;;;;8.00;3.35;;;;;;;29.38;38.18;98542.06;5142394;28;20086;-68
2022/06/21 14:14:56;;;;;;;5.40;3.40;;;;;;;29.15;38.37;98559.88;5133037;28;20061;-68
2022/06/21 14:18:01;;;;;;;9.93;3.42;;;;;;;28.74;38.83;98559.84;5129707;28;20069;-69
2022/06/21 14:21:36;;;;;;;4.45;2.90;;;;;;;29.24;38.05;98548.09;5141776;28;20100;-69
2022/06/21 14:24:35;;;;;;;5.68;3.55;;;;;;;29.22;37.76;98544.00;5135358;28;20491;-69
2022/06/21 14:27:47;;;;;;;6.43;3.47;;;;;;;29.23;38.83;98540.19;5129506;28;20057;-69
2022/06/21 14:30:57;;;;;;;5.75;3.38;;;;;;;29.15;38.04;98538.03;5141773;28;20066;-70
2022/06/21 14:33:51;;;;;;;5.68;3.17;;;;;;;29.28;38.43;98531.97;5134476;28;20061;-70
2022/06/21 14:36:53;;;;;;;7.18;3.47;;;;;;;28.93;38.51;98522.72;5142112;28;20059;-70